Crestview Heights, New York
Current Conditions -  °F | °C
As of 8:53 AM on Friday 19 Dec 2014 (Local Time) from KBGM Reporting Station
Light Snow Light Snow  
Wind Chill:   Ceiling: 700
Heat Index: 22°   Visibility: 4mi
Dew Point: 20°   Wind: 16mph
Humidity: 92%   Direction: 310°NW
Pressure: 30.03"   Gusts: 25mph
Location:  42.1332°N, 76.0798°W
Report Text: KBGM 191353Z 31014G22KT 4SM -SN BR OVC007 M06/M07 A3003 RMK AO2 SLP193 P0000 T10561067
Loading
Personal Weather Stations






























Interactive Weather Map New forecast layout! Learn more

10-Day Weather Forecast

Advertisements
Track Severe Weather on mobile